createdAt,value
2022-11-10T00:02:11.484Z,19.33
2022-11-10T00:04:39.347Z,18.35
2022-11-10T00:07:07.281Z,18.35
2022-11-10T00:09:35.276Z,17.20
2022-11-10T00:12:04.600Z,17.73
2022-11-10T00:14:49.733Z,18.65
2022-11-10T00:17:17.612Z,18.88
2022-11-10T00:19:45.512Z,16.60
2022-11-10T00:22:13.358Z,17.50
2022-11-10T00:24:41.276Z,17.92
2022-11-10T00:27:10.507Z,18.05
2022-11-10T00:29:38.735Z,17.38
2022-11-10T00:32:06.803Z,16.77
2022-11-10T00:34:34.708Z,16.50
2022-11-10T00:37:02.675Z,16.10
2022-11-10T00:39:30.593Z,16.52
2022-11-10T00:41:58.626Z,17.23
2022-11-10T00:44:27.944Z,17.23
2022-11-10T00:46:55.869Z,15.65
2022-11-10T00:49:23.844Z,15.88
2022-11-10T00:51:51.708Z,16.95
2022-11-10T00:54:19.662Z,16.80
2022-11-10T00:56:47.592Z,15.23
2022-11-10T00:59:15.438Z,16.70
2022-11-10T01:01:44.721Z,15.98
2022-11-10T01:04:12.717Z,15.70
2022-11-10T01:06:40.661Z,15.45
2022-11-10T01:09:08.548Z,14.93
2022-11-10T01:11:36.444Z,14.30
2022-11-10T01:14:04.367Z,15.00
2022-11-10T01:16:33.136Z,15.35
2022-11-10T01:19:04.360Z,14.68
2022-11-10T01:21:32.396Z,15.40
2022-11-10T01:24:00.633Z,14.07
2022-11-10T01:26:28.518Z,14.23
2022-11-10T01:28:56.414Z,14.40
2022-11-10T01:31:24.321Z,13.25
2022-11-10T01:33:52.214Z,14.93
2022-11-10T01:36:21.459Z,13.88
2022-11-10T01:38:49.340Z,13.15
2022-11-10T01:41:17.225Z,13.60
2022-11-10T01:43:45.096Z,13.60
2022-11-10T01:46:14.492Z,13.85
2022-11-10T01:48:46.937Z,13.55
2022-11-10T01:51:19.982Z,13.60
2022-11-10T01:53:52.261Z,12.68
2022-11-10T01:56:21.141Z,12.77
2022-11-10T01:58:52.782Z,12.50
2022-11-10T02:01:20.792Z,13.63
2022-11-10T02:03:51.947Z,13.55
2022-11-10T02:06:23.389Z,12.75
2022-11-10T02:08:53.941Z,12.38
2022-11-10T02:11:22.459Z,11.88
2022-11-10T02:13:51.311Z,12.07
2022-11-10T02:16:20.195Z,12.45
2022-11-10T02:18:48.917Z,11.85
2022-11-10T02:21:19.636Z,12.05
2022-11-10T02:23:49.918Z,11.70
2022-11-10T02:26:20.523Z,11.43
2022-11-10T02:28:48.829Z,11.57
2022-11-10T02:31:16.927Z,10.82
2022-11-10T02:33:44.824Z,10.60
2022-11-10T02:36:13.129Z,12.00
2022-11-10T02:38:42.366Z,10.68
2022-11-10T02:41:10.317Z,11.07
2022-11-10T02:43:39.351Z,10.93
2022-11-10T02:46:07.684Z,10.10
2022-11-10T02:48:36.590Z,10.57
2022-11-10T02:51:04.546Z,11.10
2022-11-10T02:53:32.420Z,10.70
2022-11-10T02:56:01.701Z,10.45
2022-11-10T02:58:29.670Z,10.55
2022-11-10T03:00:57.608Z,11.38
2022-11-10T03:03:25.595Z,10.48
2022-11-10T03:05:53.524Z,9.98
2022-11-10T03:08:21.375Z,10.65
2022-11-10T03:10:49.540Z,10.75
2022-11-10T03:13:18.953Z,9.15
2022-11-10T03:15:48.566Z,9.95
2022-11-10T03:18:16.432Z,9.98
2022-11-10T03:20:44.500Z,9.15
2022-11-10T03:23:12.361Z,10.05
2022-11-10T03:25:40.256Z,10.15
2022-11-10T03:28:08.159Z,9.38
2022-11-10T03:30:37.472Z,9.95
2022-11-10T03:33:05.744Z,9.20
2022-11-10T03:35:33.937Z,9.85
2022-11-10T03:38:01.819Z,8.68
2022-11-10T03:40:29.679Z,8.65
2022-11-10T03:42:57.581Z,8.85
2022-11-10T03:45:26.044Z,8.38
2022-11-10T03:47:55.267Z,8.95
2022-11-10T03:50:23.192Z,8.50
2022-11-10T03:52:51.027Z,8.23
2022-11-10T03:55:19.868Z,8.70
2022-11-10T03:57:47.879Z,8.48
2022-11-10T04:00:16.652Z,7.72
2022-11-10T04:02:44.500Z,9.05
2022-11-10T04:05:31.308Z,8.63
2022-11-10T04:08:18.398Z,8.25
2022-11-10T04:10:46.619Z,7.93
2022-11-10T04:13:32.232Z,8.48
2022-11-10T04:16:00.175Z,8.35
2022-11-10T04:18:29.511Z,7.47
2022-11-10T04:21:00.966Z,7.90
2022-11-10T04:23:34.700Z,8.15
2022-11-10T04:26:21.663Z,7.82
2022-11-10T04:28:51.555Z,8.00
2022-11-10T04:31:22.357Z,7.75
2022-11-10T04:33:51.559Z,7.10
2022-11-10T04:36:23.027Z,7.70
2022-11-10T04:38:51.214Z,7.20
2022-11-10T04:41:19.803Z,7.50
2022-11-10T04:43:47.651Z,7.22
2022-11-10T04:46:22.477Z,6.90
2022-11-10T04:48:50.647Z,7.50
2022-11-10T04:51:20.647Z,7.55
2022-11-10T04:53:48.583Z,7.18
2022-11-10T04:56:17.704Z,6.05
2022-11-10T04:58:46.154Z,6.90
2022-11-10T05:01:15.694Z,6.53
2022-11-10T05:03:44.283Z,6.78
2022-11-10T05:06:12.852Z,6.75
2022-11-10T05:08:43.571Z,6.47
2022-11-10T05:11:12.790Z,6.25
2022-11-10T05:13:41.085Z,6.70
2022-11-10T05:16:09.463Z,6.20
2022-11-10T05:18:37.641Z,6.22
2022-11-10T05:21:05.724Z,6.65
2022-11-10T05:23:39.431Z,6.18
2022-11-10T05:26:11.408Z,6.80
2022-11-10T05:29:00.258Z,6.47
2022-11-10T05:31:30.217Z,6.68
2022-11-10T05:33:58.210Z,6.68
2022-11-10T05:36:26.082Z,6.28
2022-11-10T05:38:53.959Z,5.82
2022-11-10T05:41:23.177Z,6.05
2022-11-10T05:43:51.073Z,6.07
2022-11-10T05:46:18.983Z,5.50
2022-11-10T05:48:48.133Z,5.90
2022-11-10T05:51:16.056Z,4.97
2022-11-10T05:53:43.927Z,5.38
2022-11-10T05:56:11.795Z,4.90
2022-11-10T05:58:41.057Z,4.70
2022-11-10T06:01:09.114Z,4.20
2022-11-10T06:03:37.123Z,4.82
2022-11-10T06:06:05.457Z,4.63
2022-11-10T06:08:33.359Z,5.60
2022-11-10T06:11:01.476Z,4.45
2022-11-10T06:13:29.417Z,4.38
2022-11-10T06:15:58.660Z,3.90
2022-11-10T06:18:26.559Z,3.80
2022-11-10T06:20:54.479Z,4.10
2022-11-10T06:23:22.560Z,4.30
2022-11-10T06:25:50.687Z,3.50
2022-11-10T06:28:18.595Z,3.58
2022-11-10T06:30:46.492Z,4.30
2022-11-10T06:33:15.715Z,3.78
2022-11-10T06:35:43.639Z,3.17
2022-11-10T06:38:12.840Z,3.15
2022-11-10T06:40:40.738Z,3.85
2022-11-10T06:43:08.615Z,3.75
2022-11-10T06:45:36.480Z,3.20
2022-11-10T06:48:06.955Z,3.72
2022-11-10T06:50:36.524Z,3.13
2022-11-10T06:53:04.723Z,3.42
2022-11-10T06:55:32.663Z,3.17
2022-11-10T06:58:00.891Z,2.95
2022-11-10T07:00:30.182Z,3.40
2022-11-10T07:03:02.800Z,2.70
2022-11-10T07:05:31.325Z,3.25
2022-11-10T07:08:05.033Z,3.00
2022-11-10T07:10:33.746Z,2.90
2022-11-10T07:13:03.294Z,2.83
2022-11-10T07:15:33.421Z,3.55
2022-11-10T07:18:02.481Z,2.85
2022-11-10T07:20:30.481Z,2.80
2022-11-10T07:22:59.990Z,2.80
2022-11-10T07:25:30.134Z,2.40
2022-11-10T07:27:59.338Z,3.30
2022-11-10T07:30:27.719Z,2.45
2022-11-10T07:33:00.182Z,2.72
2022-11-10T07:35:28.459Z,2.80
2022-11-10T07:37:56.646Z,2.58
2022-11-10T07:40:25.148Z,2.85
2022-11-10T07:42:54.563Z,2.60
2022-11-10T07:45:22.504Z,2.35
2022-11-10T07:47:51.477Z,3.10
2022-11-10T07:57:41.902Z,2.00
2022-11-10T08:00:11.825Z,2.03
2022-11-10T08:02:40.347Z,2.08
2022-11-10T08:05:08.812Z,2.20
2022-11-10T08:07:36.812Z,2.10
2022-11-10T08:10:05.139Z,2.40
2022-11-10T08:12:33.856Z,2.58
2022-11-10T08:15:03.226Z,2.35
2022-11-10T08:17:31.128Z,2.10
2022-11-10T08:19:59.017Z,2.10
2022-11-10T08:22:27.031Z,1.90
2022-11-10T08:24:55.113Z,1.75
2022-11-10T08:27:22.999Z,2.47
2022-11-10T08:29:50.867Z,1.88
2022-11-10T08:32:21.172Z,2.35
2022-11-10T08:34:49.187Z,1.83
2022-11-10T08:37:17.134Z,2.15
2022-11-10T08:39:45.026Z,2.00
2022-11-10T08:42:12.943Z,1.80
2022-11-10T08:44:40.836Z,2.40
2022-11-10T08:47:08.792Z,2.30
2022-11-10T08:49:38.046Z,1.42
2022-11-10T08:52:06.000Z,1.95
2022-11-10T08:54:33.895Z,2.03
2022-11-10T08:57:01.770Z,2.22
2022-11-10T08:59:29.684Z,2.72
2022-11-10T09:01:58.878Z,3.20
2022-11-10T09:04:26.982Z,2.22
2022-11-10T09:06:57.865Z,2.70
2022-11-10T09:09:26.843Z,2.22
2022-11-10T09:11:54.775Z,2.10
2022-11-10T09:14:22.927Z,2.15
2022-11-10T09:16:50.898Z,2.55
2022-11-10T09:19:20.164Z,1.88
2022-11-10T09:21:48.347Z,2.22
2022-11-10T09:24:17.720Z,2.17
2022-11-10T09:26:47.536Z,1.95
2022-11-10T09:29:15.732Z,1.95
2022-11-10T09:31:45.122Z,1.42
2022-11-10T09:34:13.128Z,1.33
2022-11-10T09:36:41.241Z,1.77
2022-11-10T09:39:09.351Z,1.70
2022-11-10T09:41:41.798Z,1.48
2022-11-10T09:44:17.493Z,1.80
2022-11-10T09:46:49.760Z,2.50
2022-11-10T09:49:28.463Z,1.90
2022-11-10T09:51:58.668Z,2.33
2022-11-10T09:54:38.131Z,1.42
2022-11-10T09:57:11.464Z,1.52
2022-11-10T09:59:39.664Z,2.20
2022-11-10T10:02:21.671Z,1.85
2022-11-10T10:05:14.468Z,1.60
2022-11-10T10:07:49.688Z,1.58
2022-11-10T10:10:24.013Z,1.45
2022-11-10T10:13:09.900Z,1.98
2022-11-10T10:15:45.648Z,1.58
2022-11-10T10:18:28.171Z,1.30
2022-11-10T10:21:19.655Z,1.73
2022-11-10T10:26:42.087Z,1.60
2022-11-10T10:29:17.520Z,1.65
2022-11-10T10:31:49.531Z,1.40
2022-11-10T10:34:19.671Z,1.73
2022-11-10T10:36:48.447Z,1.38
2022-11-10T10:39:21.767Z,1.50
2022-11-10T10:41:49.706Z,1.33
2022-11-10T10:44:20.767Z,1.75
2022-11-10T10:46:50.838Z,1.25
2022-11-10T10:49:28.671Z,1.52
2022-11-10T10:52:05.876Z,1.58
2022-11-10T10:54:35.885Z,1.77
2022-11-10T10:57:06.070Z,1.58
2022-11-10T10:59:35.689Z,1.65
2022-11-10T11:02:03.571Z,1.80
2022-11-10T11:04:34.991Z,1.55
2022-11-10T11:07:07.578Z,1.60
2022-11-10T11:09:41.839Z,1.30
2022-11-10T11:12:12.842Z,1.20
2022-11-10T11:14:46.078Z,1.40
2022-11-10T11:17:18.958Z,1.38
2022-11-10T11:19:47.037Z,1.20
2022-11-10T11:22:48.704Z,1.52
2022-11-10T11:25:23.847Z,1.50
2022-11-10T11:28:03.616Z,1.05
2022-11-10T11:30:47.817Z,1.08
2022-11-10T11:33:24.423Z,1.10
2022-11-10T11:35:59.338Z,1.30
2022-11-10T11:38:33.207Z,1.50
2022-11-10T11:41:11.899Z,1.13
2022-11-10T11:44:11.087Z,1.40
2022-11-10T11:46:49.329Z,1.70
2022-11-10T11:49:42.720Z,1.55
2022-11-10T11:52:24.127Z,1.30
2022-11-10T11:55:21.346Z,1.48
2022-11-10T11:58:12.853Z,1.23
2022-11-10T12:00:50.396Z,1.00
2022-11-10T12:04:01.244Z,1.08
2022-11-10T12:06:54.127Z,0.88
2022-11-10T12:09:32.910Z,0.80
2022-11-10T12:12:20.707Z,0.93
2022-11-10T12:14:56.473Z,1.00
2022-11-10T12:17:35.902Z,0.98
2022-11-10T12:20:14.071Z,0.80
2022-11-10T12:22:53.523Z,0.65
2022-11-10T12:25:27.356Z,0.45
2022-11-10T12:27:59.893Z,0.80
2022-11-10T12:30:31.125Z,0.95
2022-11-10T12:33:05.191Z,0.50
2022-11-10T12:35:37.952Z,0.53
2022-11-10T12:38:12.270Z,0.63
2022-11-10T12:40:43.180Z,0.73
2022-11-10T12:43:19.930Z,0.50
2022-11-10T12:45:53.819Z,0.63
2022-11-10T12:48:22.617Z,0.60
2022-11-10T12:50:58.841Z,0.80
2022-11-10T12:53:30.707Z,0.70
2022-11-10T12:56:02.128Z,0.50
2022-11-10T12:58:30.821Z,0.47
2022-11-10T13:01:01.776Z,0.40
2022-11-10T13:03:32.377Z,0.45
2022-11-10T13:06:03.019Z,0.50
2022-11-10T13:08:35.423Z,0.50
2022-11-10T13:11:07.245Z,0.30
2022-11-10T13:13:45.220Z,0.30
2022-11-10T13:16:53.957Z,0.50
2022-11-10T13:19:55.917Z,0.50
2022-11-10T13:22:33.794Z,0.35
2022-11-10T13:25:43.595Z,0.50
2022-11-10T13:28:12.733Z,0.60
2022-11-10T13:30:46.031Z,1.02
2022-11-10T13:33:36.915Z,1.10
2022-11-10T13:36:05.542Z,1.10
2022-11-10T13:38:41.316Z,1.10
2022-11-10T13:41:33.268Z,1.20
2022-11-10T13:44:01.208Z,1.67
2022-11-10T13:46:36.185Z,1.83
2022-11-10T13:51:51.684Z,2.75
2022-11-10T13:54:49.349Z,3.28
2022-11-10T13:57:30.346Z,3.45
2022-11-10T14:00:01.062Z,3.33
2022-11-10T14:02:46.973Z,3.47
2022-11-10T14:06:03.349Z,4.07
2022-11-10T14:08:39.129Z,4.22
2022-11-10T14:11:14.552Z,3.95
2022-11-10T14:13:47.376Z,3.65
2022-11-10T14:16:20.319Z,4.30
2022-11-10T14:18:53.117Z,3.65
2022-11-10T14:21:26.696Z,3.33
2022-11-10T14:23:59.929Z,3.90
2022-11-10T14:26:32.737Z,3.55
2022-11-10T14:29:34.018Z,3.67
2022-11-10T14:32:05.228Z,4.18
2022-11-10T14:34:43.060Z,3.78
2022-11-10T14:37:18.579Z,3.17
2022-11-10T14:39:46.760Z,3.10
2022-11-10T14:42:20.287Z,3.90
2022-11-10T14:44:49.739Z,3.53
2022-11-10T14:47:25.479Z,4.13
2022-11-10T14:50:17.599Z,3.50
2022-11-10T14:52:48.014Z,3.60
2022-11-10T14:55:20.358Z,3.80
2022-11-10T14:57:51.998Z,3.83
2022-11-10T15:00:28.786Z,3.58
2022-11-10T15:02:59.022Z,3.40
2022-11-10T15:05:27.075Z,4.10
2022-11-10T15:07:56.576Z,3.15
2022-11-10T15:10:26.552Z,3.35
2022-11-10T15:13:05.642Z,3.97
2022-11-10T15:15:35.250Z,3.22
2022-11-10T15:18:03.177Z,3.03
2022-11-10T15:20:36.933Z,3.53
2022-11-10T15:23:07.485Z,2.95
2022-11-10T15:25:38.594Z,2.35
2022-11-10T15:28:15.612Z,3.10
2022-11-10T15:30:52.481Z,2.80
2022-11-10T15:33:26.201Z,2.90
2022-11-10T15:35:54.757Z,3.50
2022-11-10T15:38:29.480Z,2.58
2022-11-10T15:41:11.856Z,3.00
2022-11-10T15:43:40.914Z,2.75
2022-11-10T15:46:18.163Z,2.88
2022-11-10T15:48:48.410Z,3.20
2022-11-10T15:51:22.824Z,2.63
2022-11-10T15:53:54.205Z,2.47
2022-11-10T15:56:23.770Z,2.97
2022-11-10T15:58:59.196Z,2.88
2022-11-10T16:01:32.056Z,2.20
2022-11-10T16:04:00.249Z,2.80
2022-11-10T16:06:30.365Z,2.50
2022-11-10T16:08:58.375Z,2.33
2022-11-10T16:11:26.487Z,3.00
2022-11-10T16:13:55.531Z,2.30
2022-11-10T16:16:24.022Z,2.65
2022-11-10T16:18:53.754Z,2.63
2022-11-10T16:21:23.271Z,2.33
2022-11-10T16:23:51.867Z,2.78
2022-11-10T16:26:22.844Z,2.55
2022-11-10T16:28:51.511Z,2.20
2022-11-10T16:31:21.858Z,2.50
2022-11-10T16:33:50.373Z,2.63
2022-11-10T16:36:25.622Z,2.10
2022-11-10T16:38:54.156Z,2.47
2022-11-10T16:41:22.400Z,2.35
2022-11-10T16:43:50.470Z,2.55
2022-11-10T16:46:22.723Z,2.38
2022-11-10T16:48:52.471Z,2.35
2022-11-10T16:51:29.506Z,2.47
2022-11-10T16:53:59.372Z,2.00
2022-11-10T16:56:27.367Z,2.72
2022-11-10T16:58:55.410Z,1.90
2022-11-10T17:01:27.323Z,2.03
2022-11-10T17:03:58.611Z,2.25
2022-11-10T17:06:29.515Z,2.20
2022-11-10T17:09:02.578Z,2.47
2022-11-10T17:11:30.467Z,1.95
2022-11-10T17:13:58.361Z,1.90
2022-11-10T17:16:29.470Z,1.70
2022-11-10T17:18:59.104Z,1.98
2022-11-10T17:21:32.855Z,2.05
2022-11-10T17:24:01.642Z,2.20
2022-11-10T17:26:30.633Z,2.42
2022-11-10T17:28:58.602Z,1.90
2022-11-10T17:31:26.569Z,2.65
2022-11-10T17:33:54.873Z,2.13
2022-11-10T17:36:24.418Z,2.42
2022-11-10T17:38:53.842Z,1.77
2022-11-10T17:41:21.979Z,1.92
2022-11-10T17:43:49.835Z,2.08
2022-11-10T17:46:17.740Z,2.10
2022-11-10T17:48:47.546Z,1.88
2022-11-10T17:51:20.155Z,1.92
2022-11-10T17:53:48.058Z,1.80
2022-11-10T17:56:17.757Z,1.77
2022-11-10T17:58:45.774Z,1.98
2022-11-10T18:01:17.622Z,1.75
2022-11-10T18:03:46.200Z,2.03
2022-11-10T18:06:15.844Z,2.15
2022-11-10T18:08:44.337Z,1.80
2022-11-10T18:11:14.203Z,1.40
2022-11-10T18:13:44.286Z,1.80
2022-11-10T18:16:13.832Z,1.90
2022-11-10T18:18:42.282Z,1.80
2022-11-10T18:21:11.950Z,1.48
2022-11-10T18:23:39.896Z,1.60
2022-11-10T18:26:08.963Z,1.60
2022-11-10T18:28:37.179Z,1.85
2022-11-10T18:31:11.261Z,1.33
2022-11-10T18:33:39.227Z,1.93
2022-11-10T18:36:08.752Z,1.38
2022-11-10T18:38:36.826Z,1.70
2022-11-10T18:41:26.536Z,1.60
2022-11-10T18:43:54.491Z,1.85
2022-11-10T18:46:23.832Z,1.65
2022-11-10T18:48:51.709Z,1.92
2022-11-10T18:51:19.779Z,1.73
2022-11-10T18:53:47.653Z,1.75
2022-11-10T18:56:15.557Z,1.35
2022-11-10T18:58:43.743Z,1.55
2022-11-10T19:01:12.360Z,1.70
2022-11-10T19:03:42.665Z,1.33
2022-11-10T19:06:11.156Z,1.60
2022-11-10T19:08:39.347Z,1.55
2022-11-10T19:11:08.675Z,1.55
2022-11-10T19:13:36.591Z,1.40
2022-11-10T19:16:06.044Z,1.35
2022-11-10T19:18:33.991Z,1.45
2022-11-10T19:21:06.841Z,1.40
2022-11-10T19:23:35.044Z,1.52
2022-11-10T19:26:03.479Z,1.40
2022-11-10T19:28:31.446Z,1.77
2022-11-10T19:31:02.364Z,1.70
2022-11-10T19:33:31.400Z,1.35
2022-11-10T19:36:03.206Z,1.65
2022-11-10T19:38:32.792Z,1.20
2022-11-10T19:41:04.958Z,1.33
2022-11-10T19:43:33.010Z,1.80
2022-11-10T19:46:03.671Z,1.60
2022-11-10T19:48:32.416Z,1.45
2022-11-10T19:51:01.300Z,1.10
2022-11-10T19:53:30.168Z,1.27
2022-11-10T19:56:03.534Z,1.52
2022-11-10T19:58:31.498Z,1.02
2022-11-10T20:01:01.896Z,1.27
2022-11-10T20:03:30.276Z,1.42
2022-11-10T20:05:59.769Z,1.30
2022-11-10T20:08:28.218Z,1.63
2022-11-10T20:10:59.603Z,1.60
2022-11-10T20:13:28.868Z,3.03
2022-11-10T20:15:56.787Z,4.13
2022-11-10T20:18:25.031Z,5.75
2022-11-10T20:20:52.916Z,10.18
2022-11-10T20:23:21.132Z,9.93
2022-11-10T20:25:49.207Z,11.45
2022-11-10T20:28:17.254Z,13.77
2022-11-10T20:30:46.537Z,13.68
2022-11-10T20:33:14.475Z,12.77
2022-11-10T20:35:43.887Z,15.20
2022-11-10T20:38:12.173Z,15.55
2022-11-10T20:40:44.795Z,15.75
2022-11-10T20:43:14.687Z,14.48
2022-11-10T20:45:42.571Z,12.90
2022-11-10T20:48:11.798Z,17.17
2022-11-10T20:50:41.499Z,14.35
2022-11-10T20:53:09.404Z,15.95
2022-11-10T20:55:53.018Z,15.55
2022-11-10T20:58:21.823Z,16.57
2022-11-10T21:00:49.721Z,19.02
2022-11-10T21:03:18.977Z,15.27
2022-11-10T21:05:46.986Z,17.17
2022-11-10T21:08:14.869Z,16.63
2022-11-10T21:10:42.766Z,19.50
2022-11-10T21:13:10.659Z,20.10
2022-11-10T21:15:40.131Z,21.65
2022-11-10T21:18:08.064Z,24.00
2022-11-10T21:20:37.311Z,24.17
2022-11-10T21:23:05.209Z,22.15
2022-11-10T21:25:33.335Z,22.25
2022-11-10T21:28:03.122Z,24.98
2022-11-10T21:30:31.007Z,26.60
2022-11-10T21:32:58.859Z,32.25
2022-11-10T21:35:26.811Z,29.90
2022-11-10T21:37:56.355Z,31.65
2022-11-10T21:40:25.252Z,36.47
2022-11-10T21:42:55.596Z,28.25
2022-11-10T21:45:23.592Z,35.47
2022-11-10T21:47:51.782Z,29.83
2022-11-10T21:50:20.116Z,30.92
2022-11-10T21:52:47.977Z,31.25
2022-11-10T21:55:17.343Z,31.38
2022-11-10T21:57:45.242Z,31.52
2022-11-10T22:00:14.865Z,34.63
2022-11-10T22:02:42.764Z,33.33
2022-11-10T22:05:10.632Z,28.98
2022-11-10T22:07:39.899Z,31.33
2022-11-10T22:10:26.117Z,30.17
2022-11-10T22:13:12.491Z,30.90
2022-11-10T22:15:59.003Z,32.70
2022-11-10T22:18:39.735Z,28.83
2022-11-10T22:21:08.799Z,32.05
2022-11-10T22:23:54.071Z,30.65
2022-11-10T22:26:21.967Z,29.98
2022-11-10T22:28:51.252Z,28.90
2022-11-10T22:31:19.180Z,27.60
2022-11-10T22:33:47.070Z,28.38
2022-11-10T22:36:17.165Z,26.08
2022-11-10T22:38:45.050Z,26.42
2022-11-10T22:41:43.942Z,25.65
2022-11-10T22:44:14.506Z,23.45
2022-11-10T22:46:45.773Z,22.98
2022-11-10T22:49:16.286Z,22.05
2022-11-10T22:51:45.868Z,21.90
2022-11-10T22:54:15.694Z,23.05
2022-11-10T22:56:44.818Z,22.88
2022-11-10T22:59:15.110Z,21.00
2022-11-10T23:01:44.281Z,22.50
2022-11-10T23:04:12.584Z,20.95
2022-11-10T23:06:40.597Z,21.70
2022-11-10T23:09:08.689Z,19.85
2022-11-10T23:11:37.113Z,20.42
2022-11-10T23:14:05.026Z,18.92
2022-11-10T23:16:35.935Z,17.67
2022-11-10T23:19:03.858Z,19.13
2022-11-10T23:21:31.951Z,18.42
2022-11-10T23:23:59.902Z,20.08
2022-11-10T23:26:29.981Z,19.70
2022-11-10T23:28:58.066Z,18.23
2022-11-10T23:31:28.269Z,17.73
2022-11-10T23:33:58.077Z,17.23
2022-11-10T23:36:27.369Z,18.17
2022-11-10T23:38:56.172Z,17.80
2022-11-10T23:41:25.941Z,17.60
2022-11-10T23:43:54.063Z,18.25
2022-11-10T23:46:22.128Z,16.92
2022-11-10T23:48:50.117Z,16.77
2022-11-10T23:51:19.325Z,16.15
2022-11-10T23:53:47.218Z,15.80
2022-11-10T23:56:15.605Z,16.52
2022-11-10T23:58:43.509Z,16.13
